createdAt,value
2018-03-15T00:01:33.732Z,69.10
2018-03-15T00:04:07.547Z,69.40
2018-03-15T00:06:42.717Z,69.90
2018-03-15T00:09:17.301Z,70.10
2018-03-15T00:11:51.325Z,70.00
2018-03-15T00:14:25.786Z,69.90
2018-03-15T00:16:59.785Z,70.30
2018-03-15T00:19:34.205Z,70.40
2018-03-15T00:22:08.319Z,70.60
2018-03-15T00:24:42.146Z,70.70
2018-03-15T00:27:15.984Z,71.20
2018-03-15T00:29:49.964Z,71.60
2018-03-15T00:32:23.693Z,71.70
2018-03-15T00:34:57.598Z,72.40
2018-03-15T00:37:31.939Z,72.80
2018-03-15T00:40:05.981Z,72.70
2018-03-15T00:42:39.918Z,72.80
2018-03-15T00:45:13.805Z,73.30
2018-03-15T00:47:47.925Z,73.10
2018-03-15T00:50:21.947Z,73.30
2018-03-15T00:52:56.298Z,73.30
2018-03-15T00:55:30.423Z,73.80
2018-03-15T00:58:04.859Z,74.30
2018-03-15T01:00:38.706Z,74.00
2018-03-15T01:03:13.265Z,74.90
2018-03-15T01:05:47.176Z,74.80
2018-03-15T01:08:21.935Z,75.60
2018-03-15T01:10:55.964Z,75.50
2018-03-15T01:13:29.589Z,75.60
2018-03-15T01:16:03.354Z,75.90
2018-03-15T01:18:37.089Z,76.40
2018-03-15T01:21:10.713Z,76.70
2018-03-15T01:23:44.534Z,77.10
2018-03-15T01:26:19.198Z,77.70
2018-03-15T01:28:53.156Z,77.50
2018-03-15T01:31:26.942Z,77.70
2018-03-15T01:34:01.509Z,78.30
2018-03-15T01:36:35.651Z,78.50
2018-03-15T01:39:09.328Z,79.00
2018-03-15T01:41:43.332Z,79.00
2018-03-15T01:44:17.094Z,79.70
2018-03-15T01:46:51.543Z,80.40
2018-03-15T01:49:25.811Z,80.10
2018-03-15T01:51:59.593Z,80.10
2018-03-15T01:54:34.446Z,80.80
2018-03-15T01:57:09.324Z,81.00
2018-03-15T01:59:43.684Z,80.90
2018-03-15T02:02:17.599Z,80.80
2018-03-15T02:04:51.718Z,81.40
2018-03-15T02:07:25.546Z,81.70
2018-03-15T02:09:59.358Z,81.50
2018-03-15T02:12:33.134Z,81.60
2018-03-15T02:15:07.740Z,82.40
2018-03-15T02:17:41.774Z,82.30
2018-03-15T02:20:15.544Z,82.40
2018-03-15T02:22:49.485Z,82.00
2018-03-15T02:25:23.227Z,82.80
2018-03-15T02:27:56.890Z,82.50
2018-03-15T02:30:30.571Z,83.10
2018-03-15T02:33:04.186Z,83.50
2018-03-15T02:35:38.046Z,83.60
2018-03-15T02:38:12.500Z,83.80
2018-03-15T02:40:46.746Z,83.50
2018-03-15T02:43:20.343Z,83.90
2018-03-15T02:45:54.125Z,83.40
2018-03-15T02:48:28.028Z,83.40
2018-03-15T02:51:02.161Z,83.40
2018-03-15T02:53:36.744Z,83.90
2018-03-15T02:56:10.806Z,83.80
2018-03-15T02:58:45.024Z,83.30
2018-03-15T03:01:18.605Z,83.80
2018-03-15T03:03:52.237Z,83.90
2018-03-15T03:06:26.167Z,84.00
2018-03-15T03:09:00.290Z,84.10
2018-03-15T03:11:35.070Z,84.20
2018-03-15T03:14:09.283Z,84.20
2018-03-15T03:16:43.287Z,84.20
2018-03-15T03:19:17.262Z,84.40
2018-03-15T03:21:51.006Z,84.10
2018-03-15T03:24:25.130Z,84.50
2018-03-15T03:26:58.834Z,84.50
2018-03-15T03:29:33.345Z,85.00
2018-03-15T03:32:07.275Z,85.00
2018-03-15T03:34:40.982Z,85.20
2018-03-15T03:37:14.816Z,85.30
2018-03-15T03:39:48.673Z,85.00
2018-03-15T03:42:22.492Z,85.50
2018-03-15T03:44:57.709Z,85.70
2018-03-15T03:47:31.526Z,85.60
2018-03-15T03:50:05.519Z,85.70
2018-03-15T03:52:39.973Z,85.80
2018-03-15T03:55:13.841Z,86.10
2018-03-15T03:57:47.547Z,86.20
2018-03-15T04:00:21.312Z,85.80
2018-03-15T04:02:54.930Z,85.60
2018-03-15T04:05:29.693Z,85.60
2018-03-15T04:08:04.097Z,85.60
2018-03-15T04:10:37.928Z,85.80
2018-03-15T04:13:12.560Z,86.40
2018-03-15T04:15:46.931Z,86.40
2018-03-15T04:18:21.477Z,86.70
2018-03-15T04:20:56.304Z,86.00
2018-03-15T04:23:30.630Z,85.10
2018-03-15T04:26:04.641Z,84.80
2018-03-15T04:28:38.810Z,85.30
2018-03-15T04:31:12.977Z,85.50
2018-03-15T04:33:47.474Z,84.80
2018-03-15T04:36:21.520Z,84.00
2018-03-15T04:38:56.382Z,83.70
2018-03-15T04:41:30.254Z,83.70
2018-03-15T04:44:03.881Z,83.60
2018-03-15T04:46:37.709Z,83.40
2018-03-15T04:49:11.366Z,84.10
2018-03-15T04:51:45.150Z,83.60
2018-03-15T04:54:18.971Z,83.40
2018-03-15T04:56:52.762Z,83.60
2018-03-15T04:59:27.222Z,83.60
2018-03-15T05:02:01.779Z,83.10
2018-03-15T05:04:35.857Z,83.00
2018-03-15T05:07:09.505Z,82.40
2018-03-15T05:09:43.338Z,82.30
2018-03-15T05:12:17.086Z,82.00
2018-03-15T05:14:51.520Z,82.50
2018-03-15T05:17:25.570Z,82.50
2018-03-15T05:20:00.054Z,82.90
2018-03-15T05:22:34.201Z,82.30
2018-03-15T05:25:08.446Z,82.30
2018-03-15T05:27:42.446Z,82.30
2018-03-15T05:30:16.510Z,81.70
2018-03-15T05:32:51.370Z,82.50
2018-03-15T05:35:25.485Z,81.80
2018-03-15T05:37:59.184Z,82.10
2018-03-15T05:40:33.238Z,82.30
2018-03-15T05:43:06.873Z,82.50
2018-03-15T05:45:42.274Z,83.10
2018-03-15T05:48:16.136Z,82.50
2018-03-15T05:50:49.776Z,82.70
2018-03-15T05:53:23.610Z,82.70
2018-03-15T05:55:57.354Z,82.50
2018-03-15T05:58:31.374Z,82.50
2018-03-15T06:01:05.198Z,82.70
2018-03-15T06:03:38.840Z,82.50
2018-03-15T06:06:13.412Z,82.80
2018-03-15T06:08:47.929Z,82.30
2018-03-15T06:11:21.782Z,81.20
2018-03-15T06:13:56.336Z,81.10
2018-03-15T06:16:31.069Z,80.90
2018-03-15T06:19:05.130Z,80.90
2018-03-15T06:21:38.925Z,79.90
2018-03-15T06:24:12.685Z,79.80
2018-03-15T06:26:46.509Z,79.40
2018-03-15T06:29:20.113Z,79.50
2018-03-15T06:31:54.390Z,79.50
2018-03-15T06:34:28.266Z,79.50
2018-03-15T06:37:03.026Z,80.20
2018-03-15T06:39:37.391Z,80.20
2018-03-15T06:42:11.361Z,80.20
2018-03-15T06:44:45.438Z,78.50
2018-03-15T06:47:19.294Z,78.50
2018-03-15T06:49:52.917Z,78.30
2018-03-15T06:52:27.827Z,78.40
2018-03-15T06:55:01.812Z,78.00
2018-03-15T06:57:35.485Z,77.20
2018-03-15T07:00:09.886Z,77.10
2018-03-15T07:02:44.611Z,75.60
2018-03-15T07:05:18.563Z,75.00
2018-03-15T07:07:53.023Z,72.40
2018-03-15T07:10:27.163Z,72.40
2018-03-15T07:13:00.985Z,70.20
2018-03-15T07:15:34.922Z,67.00
2018-03-15T07:18:08.564Z,63.70
2018-03-15T07:20:42.482Z,60.10
2018-03-15T07:23:16.315Z,60.90
2018-03-15T07:25:50.258Z,59.70
2018-03-15T07:28:24.023Z,59.60
2018-03-15T07:30:58.113Z,58.40
2018-03-15T07:33:31.910Z,54.00
2018-03-15T07:36:06.634Z,52.00
2018-03-15T07:38:40.667Z,52.00
2018-03-15T07:41:14.610Z,52.20
2018-03-15T07:43:48.281Z,50.80
2018-03-15T07:46:22.049Z,50.10
2018-03-15T07:48:55.679Z,48.50
2018-03-15T07:51:29.723Z,46.60
2018-03-15T07:54:04.272Z,46.00
2018-03-15T07:56:38.650Z,45.20
2018-03-15T07:59:12.384Z,46.00
2018-03-15T08:01:46.430Z,44.50
2018-03-15T08:04:20.157Z,43.70
2018-03-15T08:06:54.296Z,41.10
2018-03-15T08:09:28.175Z,38.10
2018-03-15T08:12:02.813Z,39.30
2018-03-15T08:14:36.865Z,38.50
2018-03-15T08:17:10.933Z,36.70
2018-03-15T08:19:44.800Z,36.80
2018-03-15T08:22:19.569Z,39.90
2018-03-15T08:24:54.293Z,36.20
2018-03-15T08:27:29.083Z,34.20
2018-03-15T08:30:03.155Z,34.10
2018-03-15T08:32:38.071Z,31.80
2018-03-15T08:35:12.144Z,31.70
2018-03-15T08:37:46.900Z,32.20
2018-03-15T08:40:20.937Z,32.20
2018-03-15T08:42:54.716Z,33.00
2018-03-15T08:45:28.737Z,31.30
2018-03-15T08:48:02.454Z,30.90
2018-03-15T08:50:36.156Z,31.50
2018-03-15T08:53:10.332Z,33.30
2018-03-15T08:55:44.360Z,32.30
2018-03-15T08:58:18.174Z,31.70
2018-03-15T09:00:52.328Z,31.70
2018-03-15T09:03:26.274Z,34.00
2018-03-15T09:06:00.254Z,35.90
2018-03-15T09:08:34.265Z,34.20
2018-03-15T09:11:08.184Z,35.30
2018-03-15T09:13:42.244Z,37.70
2018-03-15T09:16:16.162Z,35.70
2018-03-15T09:18:49.947Z,32.40
2018-03-15T09:21:23.810Z,29.20
2018-03-15T09:23:57.705Z,26.80
2018-03-15T09:26:31.726Z,26.20
2018-03-15T09:29:06.253Z,25.80
2018-03-15T09:31:41.239Z,25.30
2018-03-15T09:34:15.243Z,25.30
2018-03-15T09:36:48.958Z,25.80
2018-03-15T09:39:23.659Z,26.60
2018-03-15T09:41:57.886Z,26.60
2018-03-15T09:44:32.289Z,26.00
2018-03-15T09:47:06.312Z,26.00
2018-03-15T09:49:41.138Z,29.00
2018-03-15T09:52:15.961Z,28.80
2018-03-15T09:54:50.126Z,28.70
2018-03-15T09:57:24.387Z,29.00
2018-03-15T09:59:58.108Z,27.60
2018-03-15T10:02:32.840Z,27.70
2018-03-15T10:05:07.250Z,28.10
2018-03-15T10:07:41.551Z,28.00
2018-03-15T10:10:15.384Z,27.10
2018-03-15T10:12:51.091Z,29.90
2018-03-15T10:15:26.273Z,29.20
2018-03-15T10:18:00.325Z,29.20
2018-03-15T10:20:34.277Z,30.40
2018-03-15T10:23:09.075Z,36.60
2018-03-15T10:25:44.250Z,37.20
2018-03-15T10:28:18.234Z,37.10
2018-03-15T10:30:52.209Z,36.80
2018-03-15T10:33:31.722Z,34.20
2018-03-15T10:36:06.732Z,31.20
2018-03-15T10:38:40.755Z,31.10
2018-03-15T10:41:15.370Z,34.50
2018-03-15T10:43:50.173Z,35.70
2018-03-15T10:46:24.537Z,35.60
2018-03-15T10:48:58.137Z,35.80
2018-03-15T10:51:32.052Z,35.90
2018-03-15T10:54:05.956Z,34.10
2018-03-15T10:56:39.736Z,34.10
2018-03-15T10:59:13.663Z,36.20
2018-03-15T11:01:49.422Z,37.00
2018-03-15T11:04:29.158Z,38.40
2018-03-15T11:07:04.473Z,38.70
2018-03-15T11:09:38.843Z,39.00
2018-03-15T11:12:12.730Z,39.80
2018-03-15T11:14:46.589Z,40.20
2018-03-15T11:17:20.337Z,40.50
2018-03-15T11:19:53.952Z,38.70
2018-03-15T11:22:28.921Z,40.20
2018-03-15T11:25:03.097Z,41.30
2018-03-15T11:27:36.895Z,41.80
2018-03-15T11:30:10.699Z,42.20
2018-03-15T11:32:45.606Z,44.90
2018-03-15T11:35:19.966Z,44.40
2018-03-15T11:37:53.881Z,45.10
2018-03-15T11:40:27.754Z,44.70
2018-03-15T11:43:01.660Z,44.50
2018-03-15T11:45:36.130Z,45.10
2018-03-15T11:48:10.220Z,45.50
2018-03-15T11:50:44.110Z,46.60
2018-03-15T11:53:18.417Z,45.90
2018-03-15T11:55:52.838Z,46.30
2018-03-15T11:58:26.876Z,46.50
2018-03-15T12:01:01.491Z,42.80
2018-03-15T12:03:36.315Z,43.20
2018-03-15T12:06:10.418Z,43.20
2018-03-15T12:08:44.284Z,42.20
2018-03-15T12:11:18.351Z,42.30
2018-03-15T12:13:52.110Z,41.80
2018-03-15T12:16:25.957Z,41.50
2018-03-15T12:18:59.963Z,41.70
2018-03-15T12:21:33.777Z,43.20
2018-03-15T12:24:07.643Z,42.70
2018-03-15T12:26:41.406Z,42.90
2018-03-15T12:29:15.148Z,42.50
2018-03-15T12:31:48.880Z,43.80
2018-03-15T12:34:22.958Z,43.90
2018-03-15T12:36:56.646Z,45.20
2018-03-15T12:39:30.763Z,45.40
2018-03-15T12:42:04.644Z,46.50
2018-03-15T12:44:39.338Z,46.40
2018-03-15T12:47:13.456Z,46.20
2018-03-15T12:49:47.376Z,46.00
2018-03-15T12:52:21.194Z,47.20
2018-03-15T12:54:55.729Z,47.70
2018-03-15T12:57:29.741Z,47.70
2018-03-15T13:00:04.439Z,48.30
2018-03-15T13:02:38.578Z,48.30
2018-03-15T13:05:12.785Z,48.20
2018-03-15T13:07:46.608Z,48.20
2018-03-15T13:10:21.409Z,48.70
2018-03-15T13:12:55.507Z,48.60
2018-03-15T13:15:29.457Z,47.30
2018-03-15T13:18:03.433Z,47.60
2018-03-15T13:20:38.053Z,48.10
2018-03-15T13:23:12.141Z,48.00
2018-03-15T13:25:46.910Z,49.80
2018-03-15T13:28:22.075Z,49.70
2018-03-15T13:30:56.774Z,50.00
2018-03-15T13:33:31.570Z,50.90
2018-03-15T13:36:06.407Z,50.40
2018-03-15T13:38:40.528Z,50.30
2018-03-15T13:41:14.102Z,49.90
2018-03-15T13:43:47.926Z,50.20
2018-03-15T13:46:21.719Z,49.90
2018-03-15T13:48:55.562Z,50.40
2018-03-15T13:51:29.564Z,51.20
2018-03-15T13:54:03.604Z,50.40
2018-03-15T13:56:38.456Z,51.70
2018-03-15T13:59:13.649Z,51.10
2018-03-15T14:01:48.866Z,51.00
2018-03-15T14:04:23.748Z,51.70
2018-03-15T14:06:57.976Z,52.20
2018-03-15T14:09:32.764Z,52.50
2018-03-15T14:12:07.673Z,52.70
2018-03-15T14:14:41.700Z,52.20
2018-03-15T14:17:16.526Z,53.20
2018-03-15T14:19:51.467Z,51.80
2018-03-15T14:22:25.419Z,51.70
2018-03-15T14:25:00.081Z,51.90
2018-03-15T14:27:34.339Z,51.80
2018-03-15T14:30:08.920Z,53.20
2018-03-15T14:32:43.160Z,52.60
2018-03-15T14:35:16.804Z,52.20
2018-03-15T14:37:50.514Z,51.90
2018-03-15T14:40:24.235Z,52.70
2018-03-15T14:42:58.001Z,53.10
2018-03-15T14:45:31.770Z,53.50
2018-03-15T14:48:05.594Z,53.10
2018-03-15T14:50:39.436Z,52.90
2018-03-15T14:53:13.264Z,52.60
2018-03-15T14:55:46.950Z,52.90
2018-03-15T14:58:20.710Z,53.10
2018-03-15T15:00:54.685Z,53.40
2018-03-15T15:03:28.726Z,54.90
2018-03-15T15:06:02.737Z,55.10
2018-03-15T15:08:36.380Z,55.60
2018-03-15T15:11:11.018Z,54.80
2018-03-15T15:13:46.177Z,55.40
2018-03-15T15:16:20.212Z,54.70
2018-03-15T15:18:54.328Z,55.30
2018-03-15T15:21:27.998Z,55.10
2018-03-15T15:24:01.593Z,54.00
2018-03-15T15:26:35.662Z,53.20
2018-03-15T15:29:09.650Z,53.90
2018-03-15T15:31:43.542Z,54.60
2018-03-15T15:34:17.349Z,54.50
2018-03-15T15:36:51.291Z,55.20
2018-03-15T15:39:25.794Z,55.40
2018-03-15T15:41:59.907Z,55.40
2018-03-15T15:44:33.711Z,55.90
2018-03-15T15:47:07.730Z,55.20
2018-03-15T15:49:41.382Z,55.00
2018-03-15T15:52:15.131Z,54.40
2018-03-15T15:54:48.955Z,54.20
2018-03-15T15:57:23.502Z,54.90
2018-03-15T15:59:57.192Z,55.00
2018-03-15T16:02:31.022Z,55.00
2018-03-15T16:05:05.790Z,55.10
2018-03-15T16:07:39.799Z,55.10
2018-03-15T16:10:14.520Z,56.00
2018-03-15T16:12:48.666Z,55.90
2018-03-15T16:15:22.852Z,56.20
2018-03-15T16:17:57.242Z,56.90
2018-03-15T16:20:31.497Z,56.80
2018-03-15T16:23:05.521Z,57.30
2018-03-15T16:25:39.332Z,57.60
2018-03-15T16:28:14.081Z,59.60
2018-03-15T16:30:48.467Z,59.20
2018-03-15T16:33:22.273Z,60.10
2018-03-15T16:35:56.256Z,60.30
2018-03-15T16:38:30.023Z,61.50
2018-03-15T16:41:03.801Z,62.00
2018-03-15T16:43:37.865Z,62.30
2018-03-15T16:46:11.664Z,62.50
2018-03-15T16:48:45.601Z,62.30
2018-03-15T16:51:19.477Z,63.00
2018-03-15T16:53:53.385Z,62.90
2018-03-15T16:56:28.038Z,64.10
2018-03-15T16:59:02.309Z,63.50
2018-03-15T17:01:36.418Z,64.10
2018-03-15T17:04:10.972Z,64.70
2018-03-15T17:06:45.202Z,64.20
2018-03-15T17:09:18.868Z,65.10
2018-03-15T17:11:52.870Z,65.70
2018-03-15T17:14:26.618Z,64.90
2018-03-15T17:17:00.263Z,65.20
2018-03-15T17:19:34.661Z,65.30
2018-03-15T17:22:08.893Z,65.30
2018-03-15T17:24:42.935Z,65.30
2018-03-15T17:27:16.808Z,65.40
2018-03-15T17:29:51.641Z,64.30
2018-03-15T17:32:26.862Z,64.80
2018-03-15T17:35:01.063Z,64.80
2018-03-15T17:37:35.885Z,65.90
2018-03-15T17:40:10.073Z,65.20
2018-03-15T17:42:43.948Z,65.50
2018-03-15T17:45:18.046Z,64.80
2018-03-15T17:47:52.636Z,65.00
2018-03-15T17:50:26.769Z,65.00
2018-03-15T17:53:01.688Z,65.20
2018-03-15T17:55:35.505Z,65.30
2018-03-15T17:58:09.149Z,65.00
2018-03-15T18:00:43.024Z,65.50
2018-03-15T18:03:17.036Z,65.90
2018-03-15T18:05:50.741Z,65.90
2018-03-15T18:08:25.145Z,65.30
2018-03-15T18:10:59.874Z,65.50
2018-03-15T18:13:33.726Z,65.50
2018-03-15T18:16:08.334Z,65.90
2018-03-15T18:18:42.434Z,65.90
2018-03-15T18:21:16.267Z,66.10
2018-03-15T18:23:50.284Z,66.00
2018-03-15T18:26:25.686Z,66.40
2018-03-15T18:28:59.910Z,66.20
2018-03-15T18:31:33.661Z,66.30
2018-03-15T18:34:07.554Z,66.60
2018-03-15T18:36:41.485Z,66.50
2018-03-15T18:39:15.186Z,66.40
2018-03-15T18:41:49.061Z,66.60
2018-03-15T18:44:23.491Z,66.70
2018-03-15T18:46:57.828Z,67.60
2018-03-15T18:49:31.885Z,67.10
2018-03-15T18:52:06.262Z,67.70
2018-03-15T18:54:40.239Z,67.70
2018-03-15T18:57:14.039Z,68.00
2018-03-15T18:59:47.776Z,68.00
2018-03-15T19:02:21.446Z,68.20
2018-03-15T19:04:55.230Z,68.00
2018-03-15T19:07:29.035Z,67.70
2018-03-15T19:10:02.768Z,67.80
2018-03-15T19:12:36.504Z,67.90
2018-03-15T19:15:10.383Z,67.70
2018-03-15T19:17:44.013Z,67.70
2018-03-15T19:20:18.557Z,67.70
2018-03-15T19:22:52.439Z,67.60
2018-03-15T19:25:26.305Z,67.70
2018-03-15T19:27:59.962Z,67.80
2018-03-15T19:30:34.532Z,68.20
2018-03-15T19:33:08.563Z,68.10
2018-03-15T19:35:42.447Z,67.70
2018-03-15T19:38:16.145Z,67.60
2018-03-15T19:40:49.989Z,67.50
2018-03-15T19:43:25.085Z,68.00
2018-03-15T19:45:59.862Z,68.40
2018-03-15T19:48:35.047Z,68.50
2018-03-15T19:51:09.105Z,68.40
2018-03-15T19:53:43.320Z,68.40
2018-03-15T19:56:18.511Z,69.10
2018-03-15T19:58:52.525Z,68.50
2018-03-15T20:01:27.155Z,68.40
2018-03-15T20:04:02.344Z,69.00
2018-03-15T20:06:36.377Z,68.80
2018-03-15T20:09:10.334Z,69.20
2018-03-15T20:11:45.145Z,69.30
2018-03-15T20:14:19.437Z,69.00
2018-03-15T20:16:54.009Z,69.00
2018-03-15T20:19:28.189Z,69.30
2018-03-15T20:22:01.886Z,69.30
2018-03-15T20:24:35.692Z,69.30
2018-03-15T20:27:09.470Z,69.20
2018-03-15T20:29:43.239Z,69.20
2018-03-15T20:32:23.386Z,69.50
2018-03-15T20:34:58.387Z,70.10
2018-03-15T20:37:32.418Z,70.10
2018-03-15T20:40:12.582Z,70.30
2018-03-15T20:42:46.787Z,69.90
2018-03-15T20:45:26.889Z,70.70
2018-03-15T20:48:07.747Z,70.80
2018-03-15T20:50:42.150Z,70.60
2018-03-15T20:53:15.996Z,70.80
2018-03-15T20:55:49.935Z,70.90
2018-03-15T20:58:23.744Z,70.80
2018-03-15T21:00:58.573Z,70.70
2018-03-15T21:03:33.298Z,71.20
2018-03-15T21:06:08.128Z,71.60
2018-03-15T21:08:42.412Z,71.20
2018-03-15T21:11:16.471Z,71.10
2018-03-15T21:13:50.278Z,71.30
2018-03-15T21:16:24.258Z,70.80
2018-03-15T21:18:58.230Z,70.90
2018-03-15T21:21:32.128Z,71.70
2018-03-15T21:24:05.995Z,71.20
2018-03-15T21:26:40.475Z,71.80
2018-03-15T21:29:14.573Z,71.70
2018-03-15T21:31:48.616Z,72.10
2018-03-15T21:34:23.342Z,72.40
2018-03-15T21:36:58.414Z,72.40
2018-03-15T21:39:32.346Z,72.40
2018-03-15T21:42:06.721Z,72.70
2018-03-15T21:44:40.851Z,72.50
2018-03-15T21:47:14.537Z,72.80
2018-03-15T21:49:48.270Z,72.80
2018-03-15T21:52:21.963Z,73.00
2018-03-15T21:54:55.827Z,73.10
2018-03-15T21:57:29.849Z,73.60
2018-03-15T22:00:05.014Z,74.10
2018-03-15T22:02:38.943Z,73.90
2018-03-15T22:05:12.582Z,73.70
2018-03-15T22:07:47.057Z,73.60
2018-03-15T22:10:21.580Z,73.30
2018-03-15T22:12:56.649Z,73.70
2018-03-15T22:15:31.193Z,73.60
2018-03-15T22:18:05.437Z,73.40
2018-03-15T22:20:39.988Z,73.30
2018-03-15T22:23:14.532Z,73.10
2018-03-15T22:25:48.289Z,73.40
2018-03-15T22:28:22.216Z,73.00
2018-03-15T22:30:56.669Z,73.10
2018-03-15T22:33:30.591Z,73.10
2018-03-15T22:36:05.362Z,73.50
2018-03-15T22:38:39.284Z,73.40
2018-03-15T22:41:13.029Z,73.60
2018-03-15T22:43:46.785Z,73.60
2018-03-15T22:46:20.585Z,73.50
2018-03-15T22:48:54.541Z,73.50
2018-03-15T22:51:28.405Z,73.60
2018-03-15T22:54:02.221Z,73.60
2018-03-15T22:56:36.129Z,73.70
2018-03-15T22:59:09.839Z,73.60
2018-03-15T23:01:43.641Z,73.60
2018-03-15T23:04:18.254Z,73.90
2018-03-15T23:06:52.958Z,74.00
2018-03-15T23:09:27.792Z,74.10
2018-03-15T23:12:01.396Z,74.10
2018-03-15T23:14:35.665Z,74.20
2018-03-15T23:17:10.344Z,74.20
2018-03-15T23:19:45.173Z,74.20
2018-03-15T23:22:19.529Z,74.10
2018-03-15T23:24:53.634Z,74.10
2018-03-15T23:27:27.410Z,74.20
2018-03-15T23:30:01.134Z,74.30
2018-03-15T23:32:34.938Z,74.30
2018-03-15T23:35:08.750Z,74.30
2018-03-15T23:37:42.539Z,74.20
2018-03-15T23:40:16.219Z,74.20
2018-03-15T23:42:50.023Z,74.00
2018-03-15T23:45:24.663Z,75.10
2018-03-15T23:47:58.681Z,74.60
2018-03-15T23:50:32.657Z,74.20
2018-03-15T23:53:07.291Z,74.60
2018-03-15T23:55:40.958Z,74.80
2018-03-15T23:58:15.522Z,75.00
